• Join FlightAware (Why Join?)
  • Login
  • US Flag 
01:17AM EDT


 

Airport Tracker/Info


-or-


 

Live Flight TrackerFlight Track Log ✈ RPA3247 ✈ 25-Apr-2013 ✈ KALB - KDCA

Flight Track Log - Related Links

Times and Time Zones

All times are in EDT time to prevent confusion due to time zone crossing. See the RPA3247 flight status page for this flight to view local times or setup timezone preferences in your user account.

Time Position Orientation Groundspeed Altitude Reporting Facility
EDT Latitude Longitude Course Direction KTS MPH feet Rate Location/Type
05:27PM 42.7694 -73.8089 135° Southeast 144 166 1,400  Level Boston Center
05:27PM 42.7881 -73.8150 346° North 157 181 2,100 2,100 Climbing Boston Center
05:28PM 42.8269 -73.8669 316° Northwest 216 249 4,500 3,000 Climbing Boston Center
05:29PM 42.5323 -73.9945 171° South  Level Estimated
05:29PM 42.8594 -73.9328 304° West 216 249 8,000  Level Boston Center
05:30PM 42.4816 -73.8997 126° Southeast  Level FlightAware Approximate
05:30PM 42.8628 -74.0122 273° West 200 230 11,200  Level Boston Center
05:31PM 42.4103 -73.9656 170° South  Level Estimated
05:31PM 42.8681 -74.0775 276° West 212 244 13,400  Level Boston Center
05:32PM 42.3491 -73.8831 135° Southeast  Level FlightAware Approximate
05:32PM 42.8008 -74.1153 202° Southwest 196 226 15,500  Level Boston Center
05:33PM 42.7511 -74.0858 156° South 198 228 16,800 2,160 Climbing Boston Center
05:34PM 42.6289 -74.0261 160° South 293 337 19,900 2,700 Climbing Boston Center
05:35PM 42.5419 -73.9844 161° South 307 353 22,200 2,160 Climbing Boston Center
05:36PM 42.4531 -73.9400 160° South 328 377 24,300 2,100 Climbing Boston Center
05:37PM 42.3639 -73.8956 160° South 340 391 26,400 1,680 Climbing Boston Center
05:38PM 42.2708 -73.8514 161° South 346 398 27,700 780 Climbing Boston Center
05:39PM 42.1794 -73.8100 161° South 346 398 28,000 120 Climbing Boston Center
05:40PM 42.0839 -73.8025 177° South 346 398 28,000  Level Boston Center
05:41PM 41.9878 -73.8058 181° South 346 398 28,000  Level Boston Center
05:42PM 41.8958 -73.8261 189° South 346 398 28,000  Level Boston Center
05:43PM 41.8100 -73.8717 202° Southwest 337 388 28,000  Level Boston Center
05:45PM 41.6392 -73.9603 201° Southwest 332 382 28,000  Level New York Center
05:46PM 41.5547 -74.0033 201° Southwest 332 382 28,000  Level New York Center
05:47PM 41.4658 -74.0517 202° Southwest 332 382 28,000  Level New York Center
05:48PM 41.3792 -74.0972 202° Southwest 338 389 28,000  Level New York Center
05:49PM 41.2925 -74.1425 201° Southwest 338 389 28,000  Level New York Center
05:50PM 41.2058 -74.1881 202° Southwest 338 389 28,000  Level New York Center
05:51PM 41.1256 -74.2253 199° South 343 395 28,000  Level New York Center
05:52PM 41.0369 -74.2703 201° Southwest 343 395 28,000  Level New York Center
05:53PM 40.9500 -74.3178 202° Southwest 338 389 28,000  Level New York Center
05:54PM 40.8653 -74.3628 202° Southwest 338 389 28,000  Level New York Center
05:55PM 40.7803 -74.4186 206° Southwest 338 389 28,000  Level New York Center
05:56PM 40.7253 -74.5114 232° Southwest 332 382 28,000 -240 Level New York Center
05:57PM 40.6681 -74.6042 231° Southwest 327 376 27,600 -720 Descending New York Center
05:58PM 40.6108 -74.6994 232° Southwest 332 382 26,600 -1,020 Descending New York Center
05:59PM 40.5517 -74.7861 228° Southwest 332 382 25,600 -1,020 Descending New York Center
06:00PM 40.4925 -74.8728 228° Southwest 327 376 24,600 -840 Descending New York Center
06:01PM 40.4333 -74.9536 226° Southwest 321 369 24,000 -840 Descending New York Center
06:02PM 40.3719 -75.0400 227° Southwest 321 369 23,000 -1,020 Descending New York Center
06:03PM 40.3147 -75.1208 227° Southwest 321 369 22,000 -540 Descending New York Center
06:04PM 40.2553 -75.2067 228° Southwest 321 369 22,000  Level New York Center
06:05PM 40.1958 -75.2900 227° Southwest 321 369 22,000  Level New York Center
06:06PM 40.1364 -75.3731 227° Southwest 321 369 22,000  Level New York Center
06:07PM 40.0744 -75.4583 227° Southwest 326 375 22,000  Level New York Center
06:08PM 40.0150 -75.5439 228° Southwest 326 375 22,000  Level New York Center
06:09PM 39.9508 -75.6289 225° Southwest 326 375 22,000  Level New York Center
06:10PM 39.8928 -75.7250 232° Southwest 337 388 22,000  Level New York Center
06:11PM 39.8344 -75.8181 231° Southwest 337 388 22,000 -420 Level New York Center
06:12PM 39.7764 -75.9086 230° Southwest 337 388 21,200 -960 Descending New York Center
06:13PM 39.7222 -76.0017 233° Southwest 337 388 20,200 -1,500 Descending New York Center
06:14PM 39.6556 -76.0967 228° Southwest 332 382 18,300 -1,860 Descending New York Center
06:15PM 39.6036 -76.1817 232° Southwest 332 382 16,500 -1,860 Descending New York Center
06:16PM 39.5500 -76.2667 231° Southwest 312 359 14,900 -1,800 Descending Potomac TRACON
06:17PM 39.5000 -76.3500 232° Southwest 309 356 13,200 -1,440 Descending Potomac TRACON
06:18PM 39.4333 -76.4333 224° Southwest 303 349 12,000 -600 Descending Potomac TRACON
06:19PM 39.3667 -76.5000 218° Southwest 308 354 12,000 -300 Level Potomac TRACON
06:20PM 39.3000 -76.5500 210° Southwest 309 356 11,500 -780 Descending Potomac TRACON
06:21PM 39.2167 -76.6167 212° Southwest 304 350 10,500 -780 Descending Potomac TRACON
06:22PM 39.1667 -76.6667 218° Southwest 271 312 10,000 -300 Descending Potomac TRACON
06:23PM 39.1000 -76.7333 218° Southwest 270 311 10,000 -600 Level Potomac TRACON
06:24PM 39.0500 -76.8000 226° Southwest 266 306 8,900 -1,440 Descending Potomac TRACON
06:25PM 39.0000 -76.8667 226° Southwest 261 300 7,100 -1,500 Descending Potomac TRACON
06:26PM 38.9500 -76.9333 226° Southwest 253 291 6,000 -600 Descending Potomac TRACON
06:27PM 38.8833 -76.9500 191° South 238 274 6,000 -600 Level Potomac TRACON
06:28PM 38.8167 -76.9500 180° South 227 261 4,900 -1,200 Descending Potomac TRACON
06:29PM 38.7500 -76.9500 180° South 219 252 3,700 -1,140 Descending Potomac TRACON
06:30PM 38.7000 -76.9500 180° South 222 255 2,700 -600 Descending Potomac TRACON
06:31PM 38.6833 -77.0000 247° West 174 200 2,500 -180 Descending Potomac TRACON
06:32PM 38.7333 -77.0333 333° Northwest 181 208 2,400 -120 Descending Potomac TRACON